createdAt,value
2019-05-29T00:00:05.817Z,93.12
2019-05-29T00:01:09.043Z,93.02
2019-05-29T00:02:05.878Z,93.21
2019-05-29T00:03:06.129Z,93.50
2019-05-29T00:04:06.072Z,93.31
2019-05-29T00:05:05.937Z,93.50
2019-05-29T00:06:06.109Z,92.83
2019-05-29T00:07:06.005Z,93.12
2019-05-29T00:08:06.179Z,92.74
2019-05-29T00:09:05.949Z,93.31
2019-05-29T00:10:06.099Z,93.41
2019-05-29T00:11:05.975Z,93.12
2019-05-29T00:12:07.475Z,93.02
2019-05-29T00:13:06.105Z,93.50
2019-05-29T00:14:18.829Z,93.60
2019-05-29T00:15:06.111Z,94.17
2019-05-29T00:16:06.144Z,93.88
2019-05-29T00:17:06.302Z,93.12
2019-05-29T00:18:06.043Z,92.83
2019-05-29T00:19:04.884Z,92.50
2019-05-29T00:20:06.169Z,92.36
2019-05-29T00:21:05.238Z,92.74
2019-05-29T00:22:06.019Z,92.83
2019-05-29T00:23:06.310Z,92.64
2019-05-29T00:24:04.932Z,93.21
2019-05-29T00:25:04.933Z,92.97
2019-05-29T00:26:04.945Z,93.26
2019-05-29T00:27:05.417Z,93.26
2019-05-29T00:28:04.963Z,93.36
2019-05-29T00:29:05.678Z,93.17
2019-05-29T00:30:04.989Z,93.26
2019-05-29T00:31:05.809Z,93.26
2019-05-29T00:32:04.990Z,93.36
2019-05-29T00:33:05.975Z,93.26
2019-05-29T00:34:05.007Z,92.97
2019-05-29T00:35:05.950Z,92.50
2019-05-29T00:36:06.097Z,93.26
2019-05-29T00:37:06.278Z,93.55
2019-05-29T00:38:06.392Z,93.46
2019-05-29T00:39:05.058Z,93.26
2019-05-29T00:40:05.058Z,93.74
2019-05-29T00:41:05.063Z,93.84
2019-05-29T00:42:05.075Z,94.22
2019-05-29T00:43:13.831Z,94.41
2019-05-29T00:45:11.480Z,94.12
2019-05-29T00:46:19.298Z,94.22
2019-05-29T00:48:16.178Z,93.74
2019-05-29T00:49:24.816Z,93.84
2019-05-29T00:51:23.149Z,94.22
2019-05-29T00:52:23.152Z,94.22
2019-05-29T00:53:31.847Z,94.31
2019-05-29T00:55:28.668Z,93.84
2019-05-29T00:56:28.685Z,93.74
2019-05-29T00:58:23.155Z,93.46
2019-05-29T00:59:23.097Z,93.17
2019-05-29T01:01:28.712Z,93.65
2019-05-29T01:02:28.729Z,93.41
2019-05-29T01:04:34.168Z,93.41
2019-05-29T01:05:34.139Z,92.83
2019-05-29T01:06:34.126Z,92.45
2019-05-29T01:07:34.165Z,92.74
2019-05-29T01:08:34.159Z,93.41
2019-05-29T01:09:34.143Z,92.64
2019-05-29T01:10:34.160Z,93.31
2019-05-29T01:11:34.171Z,92.93
2019-05-29T01:14:05.835Z,92.74
2019-05-29T01:15:05.832Z,92.64
2019-05-29T01:16:05.842Z,92.26
2019-05-29T01:17:05.852Z,92.36
2019-05-29T01:18:05.864Z,92.74
2019-05-29T01:19:05.868Z,92.45
2019-05-29T01:20:05.889Z,92.45
2019-05-29T01:21:05.878Z,91.97
2019-05-29T01:22:05.892Z,91.78
2019-05-29T01:23:05.903Z,92.16
2019-05-29T01:24:05.905Z,91.69
2019-05-29T01:25:05.914Z,91.78
2019-05-29T01:26:05.920Z,91.97
2019-05-29T01:27:05.932Z,91.69
2019-05-29T01:28:05.943Z,91.88
2019-05-29T01:29:05.949Z,92.36
2019-05-29T01:30:05.960Z,92.36
2019-05-29T01:31:05.969Z,92.55
2019-05-29T01:32:05.976Z,92.93
2019-05-29T01:33:05.985Z,92.64
2019-05-29T01:34:05.991Z,92.64
2019-05-29T01:35:05.999Z,92.55
2019-05-29T01:36:06.007Z,92.16
2019-05-29T01:37:06.012Z,92.45
2019-05-29T01:38:06.026Z,91.88
2019-05-29T01:39:06.031Z,91.02
2019-05-29T01:40:19.095Z,90.83
2019-05-29T01:41:06.045Z,90.45
2019-05-29T01:42:06.059Z,90.92
2019-05-29T01:43:06.064Z,90.54
2019-05-29T01:44:06.073Z,90.92
2019-05-29T01:45:08.282Z,91.11
2019-05-29T01:46:06.090Z,91.21
2019-05-29T01:47:06.099Z,91.30
2019-05-29T01:48:06.106Z,91.69
2019-05-29T01:49:06.115Z,91.21
2019-05-29T01:50:06.123Z,91.69
2019-05-29T01:51:06.129Z,91.11
2019-05-29T01:52:06.137Z,91.69
2019-05-29T01:53:06.158Z,91.97
2019-05-29T01:54:06.158Z,92.41
2019-05-29T01:55:06.165Z,92.16
2019-05-29T01:56:06.171Z,91.26
2019-05-29T01:57:06.181Z,90.83
2019-05-29T01:58:06.187Z,90.92
2019-05-29T01:59:06.195Z,90.97
2019-05-29T02:00:06.205Z,91.55
2019-05-29T02:01:06.212Z,91.93
2019-05-29T02:02:06.219Z,91.64
2019-05-29T02:03:06.230Z,91.26
2019-05-29T02:04:06.231Z,91.83
2019-05-29T02:05:06.246Z,91.83
2019-05-29T02:06:06.255Z,92.31
2019-05-29T02:07:06.261Z,92.50
2019-05-29T02:08:06.276Z,92.50
2019-05-29T02:09:06.282Z,93.36
2019-05-29T02:10:06.289Z,93.07
2019-05-29T02:11:06.296Z,93.07
2019-05-29T02:12:06.305Z,92.69
2019-05-29T02:13:06.312Z,92.12
2019-05-29T02:14:06.316Z,91.83
2019-05-29T02:15:20.939Z,91.83
2019-05-29T02:16:06.336Z,92.02
2019-05-29T02:17:06.349Z,91.74
2019-05-29T02:18:06.353Z,91.07
2019-05-29T02:19:06.361Z,91.26
2019-05-29T02:20:06.377Z,91.16
2019-05-29T02:21:06.378Z,91.16
2019-05-29T02:22:06.388Z,91.36
2019-05-29T02:23:06.396Z,91.83
2019-05-29T02:24:06.403Z,91.07
2019-05-29T02:25:06.409Z,91.07
2019-05-29T02:26:06.416Z,91.55
2019-05-29T02:27:06.421Z,91.16
2019-05-29T02:28:06.433Z,91.55
2019-05-29T02:29:06.442Z,90.97
2019-05-29T02:30:06.455Z,91.36
2019-05-29T02:31:06.463Z,91.45
2019-05-29T02:32:06.468Z,91.55
2019-05-29T02:33:06.475Z,91.16
2019-05-29T02:34:07.489Z,92.12
2019-05-29T02:35:06.492Z,91.26
2019-05-29T02:36:06.496Z,91.07
2019-05-29T02:37:06.508Z,91.07
2019-05-29T02:38:06.516Z,91.45
2019-05-29T02:39:06.522Z,90.97
2019-05-29T02:40:06.533Z,91.07
2019-05-29T02:41:06.540Z,90.97
2019-05-29T02:42:06.555Z,91.07
2019-05-29T02:43:06.560Z,90.97
2019-05-29T02:44:06.570Z,90.59
2019-05-29T02:45:06.579Z,90.59
2019-05-29T02:46:06.593Z,90.59
2019-05-29T02:47:06.592Z,90.31
2019-05-29T02:48:06.594Z,90.50
2019-05-29T02:49:06.607Z,90.88
2019-05-29T02:50:06.621Z,91.26
2019-05-29T02:51:06.622Z,91.45
2019-05-29T02:52:06.640Z,90.88
2019-05-29T02:53:06.643Z,91.36
2019-05-29T02:54:06.644Z,91.93
2019-05-29T02:55:06.658Z,91.74
2019-05-29T02:56:06.662Z,91.83
2019-05-29T02:57:06.674Z,91.93
2019-05-29T02:58:06.683Z,91.55
2019-05-29T02:59:06.686Z,91.64
2019-05-29T03:00:06.698Z,92.31
2019-05-29T03:01:06.785Z,91.83
2019-05-29T03:02:06.713Z,91.93
2019-05-29T03:03:06.719Z,91.64
2019-05-29T03:04:06.731Z,91.83
2019-05-29T03:05:06.741Z,91.83
2019-05-29T03:06:06.746Z,91.55
2019-05-29T03:07:06.753Z,92.02
2019-05-29T03:08:06.762Z,91.55
2019-05-29T03:09:06.769Z,91.55
2019-05-29T03:10:06.779Z,92.02
2019-05-29T03:11:06.793Z,92.12
2019-05-29T03:12:06.793Z,92.02
2019-05-29T03:13:06.804Z,92.31
2019-05-29T03:14:06.817Z,92.21
2019-05-29T03:15:06.913Z,92.74
2019-05-29T03:16:11.235Z,92.65
2019-05-29T03:17:06.838Z,93.26
2019-05-29T03:18:06.846Z,92.97
2019-05-29T03:19:06.868Z,92.79
2019-05-29T03:20:06.859Z,93.41
2019-05-29T03:21:06.872Z,93.60
2019-05-29T03:22:06.875Z,93.84
2019-05-29T03:23:06.877Z,93.60
2019-05-29T03:24:06.891Z,93.51
2019-05-29T03:25:06.901Z,93.79
2019-05-29T03:26:06.902Z,93.88
2019-05-29T03:27:06.924Z,94.41
2019-05-29T03:28:06.922Z,94.17
2019-05-29T03:29:06.929Z,94.27
2019-05-29T03:30:06.943Z,93.98
2019-05-29T03:31:06.951Z,93.98
2019-05-29T03:32:13.271Z,94.07
2019-05-29T03:33:06.968Z,94.17
2019-05-29T03:34:06.975Z,93.98
2019-05-29T03:35:06.981Z,93.79
2019-05-29T03:36:06.988Z,93.70
2019-05-29T03:37:06.996Z,93.70
2019-05-29T03:38:06.998Z,94.17
2019-05-29T03:39:07.012Z,93.98
2019-05-29T03:40:07.023Z,94.07
2019-05-29T03:41:07.032Z,94.74
2019-05-29T03:42:07.032Z,94.36
2019-05-29T03:43:07.047Z,94.27
2019-05-29T03:44:10.312Z,94.17
2019-05-29T03:45:07.066Z,94.17
2019-05-29T03:46:07.069Z,94.17
2019-05-29T03:47:07.078Z,93.70
2019-05-29T03:48:07.096Z,93.79
2019-05-29T03:49:07.101Z,94.17
2019-05-29T03:50:07.128Z,94.07
2019-05-29T03:51:07.115Z,93.60
2019-05-29T03:52:07.132Z,94.36
2019-05-29T03:53:07.139Z,94.07
2019-05-29T03:54:07.137Z,94.36
2019-05-29T03:55:07.143Z,93.70
2019-05-29T03:56:07.153Z,94.36
2019-05-29T03:57:07.160Z,93.60
2019-05-29T03:58:07.161Z,93.51
2019-05-29T03:59:07.175Z,93.41
2019-05-29T04:00:07.206Z,93.41
2019-05-29T04:01:07.259Z,93.22
2019-05-29T04:02:07.205Z,93.12
2019-05-29T04:03:07.216Z,93.22
2019-05-29T04:04:07.217Z,93.26
2019-05-29T04:05:07.230Z,93.70
2019-05-29T04:06:07.238Z,93.41
2019-05-29T04:07:07.241Z,93.22
2019-05-29T04:08:07.248Z,93.02
2019-05-29T04:09:07.262Z,93.02
2019-05-29T04:10:07.277Z,93.60
2019-05-29T04:11:07.328Z,93.70
2019-05-29T04:12:07.281Z,93.41
2019-05-29T04:13:07.288Z,93.60
2019-05-29T04:14:07.296Z,92.74
2019-05-29T04:15:07.304Z,93.22
2019-05-29T04:16:07.321Z,93.02
2019-05-29T04:17:07.333Z,93.12
2019-05-29T04:18:07.328Z,93.02
2019-05-29T04:19:07.345Z,93.12
2019-05-29T04:20:07.345Z,93.02
2019-05-29T04:21:07.355Z,93.22
2019-05-29T04:22:07.359Z,93.22
2019-05-29T04:23:07.370Z,92.93
2019-05-29T04:24:07.379Z,92.93
2019-05-29T04:25:07.387Z,93.02
2019-05-29T04:26:07.391Z,93.22
2019-05-29T04:27:07.398Z,93.41
2019-05-29T04:28:07.410Z,93.51
2019-05-29T04:29:07.418Z,93.70
2019-05-29T04:30:07.429Z,93.60
2019-05-29T04:31:07.445Z,93.70
2019-05-29T04:32:07.439Z,93.88
2019-05-29T04:33:07.451Z,93.88
2019-05-29T04:34:07.461Z,93.60
2019-05-29T04:35:07.467Z,92.93
2019-05-29T04:36:07.475Z,93.60
2019-05-29T04:37:07.612Z,93.60
2019-05-29T04:38:07.489Z,94.27
2019-05-29T04:39:07.497Z,94.17
2019-05-29T04:40:07.509Z,94.36
2019-05-29T04:41:07.514Z,94.17
2019-05-29T04:42:07.520Z,94.36
2019-05-29T04:43:07.531Z,93.60
2019-05-29T04:44:07.543Z,93.88
2019-05-29T04:45:07.548Z,93.31
2019-05-29T04:46:07.558Z,93.51
2019-05-29T04:47:11.528Z,93.70
2019-05-29T04:48:07.567Z,93.79
2019-05-29T04:49:07.580Z,93.79
2019-05-29T04:50:07.585Z,93.22
2019-05-29T04:51:07.591Z,92.69
2019-05-29T04:52:07.613Z,92.21
2019-05-29T04:53:07.607Z,92.83
2019-05-29T04:54:07.620Z,92.41
2019-05-29T04:55:07.625Z,92.60
2019-05-29T04:56:07.634Z,92.69
2019-05-29T04:57:07.643Z,93.17
2019-05-29T04:58:07.661Z,93.26
2019-05-29T04:59:07.658Z,93.17
2019-05-29T05:00:07.669Z,93.07
2019-05-29T05:01:07.697Z,92.97
2019-05-29T05:02:07.687Z,92.88
2019-05-29T05:03:07.692Z,92.60
2019-05-29T05:04:07.700Z,92.50
2019-05-29T05:05:07.707Z,92.69
2019-05-29T05:06:07.719Z,92.69
2019-05-29T05:07:07.726Z,92.60
2019-05-29T05:08:07.736Z,93.26
2019-05-29T05:09:07.740Z,92.97
2019-05-29T05:10:07.752Z,92.79
2019-05-29T05:11:07.754Z,93.36
2019-05-29T05:12:07.765Z,93.26
2019-05-29T05:13:07.771Z,92.97
2019-05-29T05:14:07.782Z,93.46
2019-05-29T05:15:07.790Z,93.79
2019-05-29T05:16:07.801Z,94.46
2019-05-29T05:17:07.819Z,94.17
2019-05-29T05:18:07.816Z,94.27
2019-05-29T05:19:07.822Z,93.70
2019-05-29T05:20:07.830Z,94.27
2019-05-29T05:21:07.837Z,94.17
2019-05-29T05:22:07.847Z,93.60
2019-05-29T05:23:07.856Z,92.64
2019-05-29T05:24:07.870Z,91.69
2019-05-29T05:25:07.880Z,90.73
2019-05-29T05:26:07.886Z,90.06
2019-05-29T05:27:07.886Z,89.63
2019-05-29T05:28:07.896Z,90.39
2019-05-29T05:29:07.910Z,91.64
2019-05-29T05:30:09.056Z,92.40
2019-05-29T05:31:07.932Z,91.25
2019-05-29T05:32:07.932Z,91.35
2019-05-29T05:33:07.939Z,90.49
2019-05-29T05:34:07.949Z,90.88
2019-05-29T05:35:07.955Z,90.88
2019-05-29T05:36:07.965Z,90.78
2019-05-29T05:37:07.971Z,90.39
2019-05-29T05:38:07.981Z,90.25
2019-05-29T05:39:07.988Z,90.92
2019-05-29T05:40:07.997Z,90.82
2019-05-29T05:41:08.009Z,90.92
2019-05-29T05:42:08.014Z,91.11
2019-05-29T05:43:22.863Z,90.73
2019-05-29T05:44:08.035Z,90.34
2019-05-29T05:45:08.038Z,90.44
2019-05-29T05:46:08.046Z,90.06
2019-05-29T05:47:08.054Z,88.62
2019-05-29T05:48:08.067Z,88.62
2019-05-29T05:49:08.078Z,88.43
2019-05-29T05:50:08.083Z,88.53
2019-05-29T05:51:08.092Z,89.48
2019-05-29T05:52:08.096Z,89.48
2019-05-29T05:53:08.114Z,89.39
2019-05-29T05:54:08.116Z,89.58
2019-05-29T05:55:08.127Z,89.01
2019-05-29T05:56:08.128Z,89.39
2019-05-29T05:57:08.144Z,90.16
2019-05-29T05:58:08.158Z,89.20
2019-05-29T05:59:08.162Z,89.72
2019-05-29T06:00:08.166Z,90.20
2019-05-29T06:01:08.200Z,88.67
2019-05-29T06:02:08.184Z,88.57
2019-05-29T06:03:08.200Z,87.62
2019-05-29T06:04:08.203Z,87.23
2019-05-29T06:05:08.211Z,87.90
2019-05-29T06:06:08.219Z,88.67
2019-05-29T06:07:08.228Z,89.15
2019-05-29T06:08:08.238Z,88.67
2019-05-29T06:09:08.250Z,89.53
2019-05-29T06:10:08.260Z,88.95
2019-05-29T06:11:08.264Z,89.43
2019-05-29T06:12:08.272Z,90.87
2019-05-29T06:13:08.279Z,91.11
2019-05-29T06:14:08.288Z,90.96
2019-05-29T06:15:08.306Z,90.72
2019-05-29T06:16:08.306Z,91.97
2019-05-29T06:17:08.316Z,91.97
2019-05-29T06:18:20.687Z,91.58
2019-05-29T06:19:08.341Z,90.91
2019-05-29T06:20:08.348Z,90.53
2019-05-29T06:21:08.353Z,90.72
2019-05-29T06:22:08.367Z,91.11
2019-05-29T06:23:08.369Z,90.91
2019-05-29T06:24:08.381Z,90.82
2019-05-29T06:25:08.401Z,91.01
2019-05-29T06:26:08.398Z,91.01
2019-05-29T06:27:08.405Z,90.72
2019-05-29T06:28:08.414Z,90.82
2019-05-29T06:29:08.425Z,90.63
2019-05-29T06:30:08.429Z,91.39
2019-05-29T06:31:08.437Z,91.58
2019-05-29T06:32:08.444Z,90.63
2019-05-29T06:33:08.463Z,90.82
2019-05-29T06:34:08.465Z,91.05
2019-05-29T06:35:08.471Z,91.44
2019-05-29T06:36:08.486Z,91.63
2019-05-29T06:37:08.499Z,91.72
2019-05-29T06:38:08.502Z,90.86
2019-05-29T06:39:08.506Z,90.96
2019-05-29T06:40:08.522Z,90.72
2019-05-29T06:41:08.526Z,90.72
2019-05-29T06:42:08.536Z,91.10
2019-05-29T06:43:11.809Z,90.43
2019-05-29T06:44:08.554Z,89.57
2019-05-29T06:45:08.831Z,88.80
2019-05-29T06:46:08.586Z,88.80
2019-05-29T06:47:08.583Z,87.17
2019-05-29T06:48:08.591Z,87.65
2019-05-29T06:49:08.599Z,88.51
2019-05-29T06:50:08.608Z,88.42
2019-05-29T06:51:08.613Z,88.99
2019-05-29T06:52:09.336Z,88.51
2019-05-29T06:53:08.641Z,88.13
2019-05-29T06:54:08.649Z,88.32
2019-05-29T06:55:08.656Z,88.18
2019-05-29T06:56:08.700Z,87.99
2019-05-29T06:57:08.680Z,88.85
2019-05-29T06:58:08.691Z,88.95
2019-05-29T06:59:08.693Z,89.23
2019-05-29T07:00:08.704Z,89.14
2019-05-29T07:01:08.740Z,88.90
2019-05-29T07:02:08.719Z,88.99
2019-05-29T07:03:08.721Z,89.37
2019-05-29T07:04:12.271Z,87.74
2019-05-29T07:05:08.750Z,87.27
2019-05-29T07:06:08.781Z,87.55
2019-05-29T07:07:08.768Z,87.94
2019-05-29T07:08:19.135Z,89.28
2019-05-29T07:09:08.785Z,89.37
2019-05-29T07:10:08.798Z,88.61
2019-05-29T07:11:08.803Z,88.32
2019-05-29T07:12:08.817Z,88.03
2019-05-29T07:13:08.822Z,87.74
2019-05-29T07:14:08.854Z,87.37
2019-05-29T07:15:08.846Z,88.03
2019-05-29T07:16:08.846Z,87.88
2019-05-29T07:17:08.913Z,87.98
2019-05-29T07:18:08.869Z,87.98
2019-05-29T07:19:24.568Z,88.08
2019-05-29T07:20:08.890Z,87.50
2019-05-29T07:21:08.901Z,85.25
2019-05-29T07:22:08.901Z,84.20
2019-05-29T07:23:08.921Z,84.78
2019-05-29T07:24:08.923Z,85.64
2019-05-29T07:25:08.932Z,86.12
2019-05-29T07:26:08.946Z,86.69
2019-05-29T07:27:13.407Z,87.55
2019-05-29T07:28:08.959Z,86.60
2019-05-29T07:29:08.972Z,86.74
2019-05-29T07:30:08.979Z,85.68
2019-05-29T07:31:08.997Z,86.35
2019-05-29T07:32:08.998Z,86.74
2019-05-29T07:33:11.462Z,86.93
2019-05-29T07:34:09.013Z,84.34
2019-05-29T07:35:09.029Z,84.82
2019-05-29T07:36:09.032Z,83.48
2019-05-29T07:37:09.045Z,83.19
2019-05-29T07:38:09.055Z,83.19
2019-05-29T07:39:09.063Z,83.09
2019-05-29T07:40:09.071Z,83.19
2019-05-29T07:41:09.083Z,82.81
2019-05-29T07:42:09.095Z,83.95
2019-05-29T07:43:09.121Z,84.34
2019-05-29T07:44:09.117Z,82.81
2019-05-29T07:45:09.120Z,82.71
2019-05-29T07:46:09.126Z,83.86
2019-05-29T07:47:10.000Z,83.44
2019-05-29T07:48:09.148Z,84.58
2019-05-29T07:49:09.160Z,83.44
2019-05-29T07:50:09.167Z,84.11
2019-05-29T07:51:09.177Z,84.68
2019-05-29T07:52:09.188Z,84.20
2019-05-29T07:53:09.199Z,84.26
2019-05-29T07:54:09.205Z,84.83
2019-05-29T07:55:09.240Z,84.64
2019-05-29T07:56:21.648Z,84.26
2019-05-29T07:57:09.233Z,85.02
2019-05-29T07:58:09.245Z,85.31
2019-05-29T07:59:09.254Z,85.60
2019-05-29T08:00:09.263Z,85.12
2019-05-29T08:01:13.557Z,85.21
2019-05-29T08:02:09.280Z,85.02
2019-05-29T08:03:09.290Z,84.92
2019-05-29T08:04:09.300Z,85.69
2019-05-29T08:05:09.309Z,85.21
2019-05-29T08:06:09.318Z,85.41
2019-05-29T08:07:09.330Z,84.83
2019-05-29T08:08:09.341Z,85.12
2019-05-29T08:09:09.346Z,84.74
2019-05-29T08:10:09.355Z,85.41
2019-05-29T08:11:09.366Z,85.50
2019-05-29T08:12:09.374Z,84.83
2019-05-29T08:13:09.384Z,85.69
2019-05-29T08:14:09.388Z,85.88
2019-05-29T08:15:09.398Z,85.31
2019-05-29T08:16:09.411Z,85.50
2019-05-29T08:17:09.419Z,83.11
2019-05-29T08:18:09.426Z,83.78
2019-05-29T08:19:09.444Z,84.83
2019-05-29T08:20:09.460Z,84.64
2019-05-29T08:21:09.455Z,84.06
2019-05-29T08:22:09.469Z,84.83
2019-05-29T08:23:09.548Z,85.02
2019-05-29T08:24:09.486Z,84.45
2019-05-29T08:25:09.497Z,83.39
2019-05-29T08:26:09.503Z,83.11
2019-05-29T08:27:09.513Z,83.05
2019-05-29T08:28:09.523Z,84.88
2019-05-29T08:29:09.525Z,85.54
2019-05-29T08:30:09.546Z,84.68
2019-05-29T08:31:09.543Z,83.58
2019-05-29T08:32:09.562Z,82.67
2019-05-29T08:33:09.567Z,83.29
2019-05-29T08:34:09.576Z,80.89
2019-05-29T08:35:09.584Z,80.22
2019-05-29T08:36:09.606Z,80.89
2019-05-29T08:37:09.607Z,82.42
2019-05-29T08:38:09.614Z,82.23
2019-05-29T08:39:09.623Z,81.66
2019-05-29T08:40:09.641Z,82.04
2019-05-29T08:41:09.651Z,79.36
2019-05-29T08:42:22.753Z,81.22
2019-05-29T08:43:09.663Z,80.64
2019-05-29T08:44:09.674Z,80.26
2019-05-29T08:45:09.705Z,80.55
2019-05-29T08:46:09.690Z,79.97
2019-05-29T08:47:11.004Z,78.92
2019-05-29T08:48:09.705Z,79.01
2019-05-29T08:49:09.723Z,80.26
2019-05-29T08:50:17.863Z,80.07
2019-05-29T08:51:09.740Z,80.45
2019-05-29T08:52:12.319Z,80.26
2019-05-29T08:53:09.759Z,81.41
2019-05-29T08:54:23.381Z,81.79
2019-05-29T08:55:09.778Z,80.16
2019-05-29T08:56:09.793Z,79.88
2019-05-29T08:57:09.798Z,79.78
2019-05-29T08:58:09.806Z,80.83
2019-05-29T08:59:09.818Z,81.84
2019-05-29T09:00:09.823Z,81.45
2019-05-29T09:01:09.839Z,80.93
2019-05-29T09:02:09.854Z,78.67
2019-05-29T09:03:09.857Z,76.90
2019-05-29T09:04:09.868Z,76.81
2019-05-29T09:05:09.878Z,77.95
2019-05-29T09:06:13.357Z,79.44
2019-05-29T09:07:09.895Z,80.68
2019-05-29T09:08:09.907Z,79.78
2019-05-29T09:09:09.910Z,79.82
2019-05-29T09:10:09.926Z,80.40
2019-05-29T09:11:09.935Z,81.35
2019-05-29T09:12:09.948Z,79.72
2019-05-29T09:13:09.956Z,77.04
2019-05-29T09:14:09.968Z,78.57
2019-05-29T09:15:10.430Z,79.05
2019-05-29T09:16:09.982Z,77.51
2019-05-29T09:17:09.997Z,77.23
2019-05-29T09:18:10.007Z,77.90
2019-05-29T09:19:10.019Z,79.05
2019-05-29T09:20:26.210Z,79.96
2019-05-29T09:21:10.038Z,78.77
2019-05-29T09:22:10.049Z,77.61
2019-05-29T09:23:10.059Z,78.99
2019-05-29T09:24:10.118Z,81.87
2019-05-29T09:25:10.078Z,80.34
2019-05-29T09:26:15.784Z,81.10
2019-05-29T09:27:10.097Z,79.82
2019-05-29T09:28:10.110Z,79.53
2019-05-29T09:29:10.119Z,80.15
2019-05-29T09:30:10.132Z,82.16
2019-05-29T09:31:10.137Z,83.31
2019-05-29T09:32:10.155Z,82.64
2019-05-29T09:33:10.162Z,80.73
2019-05-29T09:34:10.166Z,81.87
2019-05-29T09:35:10.180Z,84.12
2019-05-29T09:36:10.190Z,85.08
2019-05-29T09:37:10.276Z,79.52
2019-05-29T09:38:10.209Z,79.03
2019-05-29T09:39:10.218Z,80.86
2019-05-29T09:40:10.233Z,84.03
2019-05-29T09:41:10.242Z,83.93
2019-05-29T09:42:10.257Z,83.93
2019-05-29T09:43:10.266Z,82.40
2019-05-29T09:44:26.787Z,82.87
2019-05-29T09:45:10.319Z,84.03
2019-05-29T09:46:10.294Z,82.10
2019-05-29T09:47:10.308Z,82.07
2019-05-29T09:48:10.317Z,82.35
2019-05-29T09:49:10.323Z,82.35
2019-05-29T09:50:10.333Z,83.41
2019-05-29T09:51:20.774Z,82.64
2019-05-29T09:52:10.356Z,82.93
2019-05-29T09:53:10.365Z,83.70
2019-05-29T09:54:10.428Z,83.80
2019-05-29T09:55:10.385Z,84.18
2019-05-29T09:56:10.401Z,80.15
2019-05-29T09:57:10.407Z,81.01
2019-05-29T09:58:10.424Z,83.12
2019-05-29T09:59:10.427Z,84.47
2019-05-29T10:00:10.457Z,84.27
2019-05-29T10:01:22.718Z,83.70
2019-05-29T10:02:10.468Z,84.95
2019-05-29T10:03:10.467Z,83.80
2019-05-29T10:04:10.490Z,83.84
2019-05-29T10:05:10.488Z,82.74
2019-05-29T10:06:10.713Z,79.71
2019-05-29T10:07:10.510Z,80.47
2019-05-29T10:08:10.519Z,82.49
2019-05-29T10:09:10.530Z,81.53
2019-05-29T10:10:10.539Z,82.34
2019-05-29T10:11:11.215Z,82.73
2019-05-29T10:12:10.565Z,81.57
2019-05-29T10:13:10.573Z,76.57
2019-05-29T10:14:10.593Z,77.63
2019-05-29T10:15:10.596Z,77.06
2019-05-29T10:16:10.605Z,79.17
2019-05-29T10:17:12.682Z,77.63
2019-05-29T10:18:30.518Z,74.94
2019-05-29T10:19:10.634Z,73.69
2019-05-29T10:20:10.648Z,74.13
2019-05-29T10:21:10.659Z,75.52
2019-05-29T10:22:10.664Z,75.57
2019-05-29T10:23:10.675Z,77.31
2019-05-29T10:24:10.690Z,76.64
2019-05-29T10:25:10.705Z,76.15
2019-05-29T10:26:10.708Z,75.29
2019-05-29T10:27:10.723Z,75.00
2019-05-29T10:28:10.729Z,74.33
2019-05-29T10:29:10.906Z,75.38
2019-05-29T10:30:10.753Z,76.21
2019-05-29T10:31:10.762Z,77.40
2019-05-29T10:32:10.771Z,78.17
2019-05-29T10:33:10.782Z,77.59
2019-05-29T10:34:10.797Z,76.34
2019-05-29T10:35:10.805Z,76.44
2019-05-29T10:36:10.816Z,77.59
2019-05-29T10:37:10.827Z,76.34
2019-05-29T10:38:10.843Z,75.82
2019-05-29T10:39:12.984Z,77.88
2019-05-29T10:40:10.862Z,77.56
2019-05-29T10:41:10.869Z,76.12
2019-05-29T10:42:10.880Z,77.36
2019-05-29T10:43:10.893Z,77.26
2019-05-29T10:44:12.822Z,78.70
2019-05-29T10:45:10.911Z,78.23
2019-05-29T10:46:10.923Z,78.13
2019-05-29T10:47:10.929Z,79.09
2019-05-29T10:48:10.982Z,78.42
2019-05-29T10:49:10.960Z,77.08
2019-05-29T10:50:11.135Z,76.40
2019-05-29T10:51:10.977Z,74.73
2019-05-29T10:52:16.573Z,74.16
2019-05-29T10:53:10.994Z,76.27
2019-05-29T10:54:11.004Z,76.07
2019-05-29T10:55:11.011Z,76.07
2019-05-29T10:56:11.027Z,76.65
2019-05-29T10:57:11.037Z,76.56
2019-05-29T10:58:11.053Z,75.70
2019-05-29T10:59:11.056Z,75.60
2019-05-29T11:00:11.062Z,74.93
2019-05-29T11:01:11.082Z,75.92
2019-05-29T11:02:11.084Z,76.31
2019-05-29T11:03:11.099Z,76.31
2019-05-29T11:04:11.109Z,74.68
2019-05-29T11:05:11.114Z,75.73
2019-05-29T11:06:11.129Z,76.69
2019-05-29T11:07:11.139Z,75.54
2019-05-29T11:08:11.152Z,77.59
2019-05-29T11:09:11.161Z,77.31
2019-05-29T11:10:13.465Z,76.64
2019-05-29T11:11:11.185Z,75.77
2019-05-29T11:12:11.189Z,72.22
2019-05-29T11:13:11.203Z,74.04
2019-05-29T11:14:11.214Z,77.15
2019-05-29T11:15:20.947Z,77.63
2019-05-29T11:16:11.242Z,79.30
2019-05-29T11:17:11.244Z,77.67
2019-05-29T11:18:11.262Z,77.76
2019-05-29T11:19:11.270Z,74.98
2019-05-29T11:20:11.282Z,72.90
2019-05-29T11:21:11.287Z,73.32
2019-05-29T11:22:25.847Z,74.67
2019-05-29T11:23:11.306Z,74.71
2019-05-29T11:24:11.325Z,70.05
2019-05-29T11:25:22.379Z,69.41
2019-05-29T11:26:11.342Z,68.38
2019-05-29T11:27:11.354Z,67.84
2019-05-29T11:28:11.391Z,66.24
2019-05-29T11:29:11.381Z,65.72
2019-05-29T11:30:11.725Z,64.92
2019-05-29T11:31:11.456Z,64.01
2019-05-29T11:32:11.445Z,62.63
2019-05-29T11:33:11.435Z,60.65
2019-05-29T11:34:11.453Z,60.42
2019-05-29T11:35:11.461Z,54.44
2019-05-29T11:36:13.590Z,52.15
2019-05-29T11:37:11.502Z,54.44
2019-05-29T11:38:11.517Z,51.75
2019-05-29T11:39:11.525Z,49.12
2019-05-29T11:40:11.540Z,50.97
2019-05-29T11:41:25.305Z,47.98
2019-05-29T11:42:26.383Z,46.86
2019-05-29T11:43:11.599Z,48.20
2019-05-29T11:44:11.614Z,50.29
2019-05-29T11:45:11.631Z,51.33
2019-05-29T11:46:11.646Z,49.24
2019-05-29T11:47:11.676Z,53.89
2019-05-29T11:48:11.686Z,53.51
2019-05-29T11:49:11.703Z,55.44
2019-05-29T11:50:19.355Z,53.63
2019-05-29T11:51:11.733Z,56.23
2019-05-29T11:52:23.285Z,57.78
2019-05-29T11:53:11.770Z,56.90
2019-05-29T11:54:11.781Z,56.56
2019-05-29T11:55:11.797Z,52.17
2019-05-29T11:56:11.820Z,53.21
2019-05-29T11:57:11.833Z,55.15
2019-05-29T11:58:29.764Z,54.01
2019-05-29T11:59:11.866Z,54.27
2019-05-29T12:00:19.606Z,53.47
2019-05-29T12:01:11.899Z,52.80
2019-05-29T12:02:11.916Z,55.43
2019-05-29T12:03:11.934Z,56.50
2019-05-29T12:04:25.681Z,55.46
2019-05-29T12:05:11.960Z,55.40
2019-05-29T12:06:11.981Z,52.93
2019-05-29T12:07:11.995Z,54.07
2019-05-29T12:08:12.011Z,52.62
2019-05-29T12:09:12.030Z,52.01
2019-05-29T12:10:12.084Z,55.18
2019-05-29T12:11:12.059Z,53.31
2019-05-29T12:12:12.076Z,52.58
2019-05-29T12:13:12.098Z,50.79
2019-05-29T12:14:12.174Z,54.41
2019-05-29T12:15:15.646Z,55.83
2019-05-29T12:16:12.150Z,57.04
2019-05-29T12:17:12.158Z,57.39
2019-05-29T12:18:23.538Z,60.10
2019-05-29T12:19:12.189Z,62.09
2019-05-29T12:20:26.960Z,64.08
2019-05-29T12:21:12.211Z,65.30
2019-05-29T12:22:12.233Z,65.37
2019-05-29T12:23:25.218Z,67.29
2019-05-29T12:24:12.261Z,67.65
2019-05-29T12:25:12.278Z,68.70
2019-05-29T12:26:21.953Z,68.96
2019-05-29T12:27:12.301Z,69.31
2019-05-29T12:28:12.316Z,70.17
2019-05-29T12:29:12.347Z,72.00
2019-05-29T12:30:12.345Z,71.71
2019-05-29T12:31:12.367Z,71.33
2019-05-29T12:32:12.821Z,71.91
2019-05-29T12:33:12.382Z,71.61
2019-05-29T12:34:19.108Z,71.04
2019-05-29T12:35:12.406Z,71.61
2019-05-29T12:36:12.419Z,71.81
2019-05-29T12:37:12.433Z,72.86
2019-05-29T12:38:12.446Z,71.91
2019-05-29T12:39:12.493Z,72.06
2019-05-29T12:40:12.475Z,71.91
2019-05-29T12:41:12.480Z,71.23
2019-05-29T12:42:12.494Z,71.00
2019-05-29T12:43:26.341Z,71.81
2019-05-29T12:44:12.519Z,71.96
2019-05-29T12:45:12.532Z,71.61
2019-05-29T12:46:12.544Z,71.81
2019-05-29T12:47:12.558Z,71.61
2019-05-29T12:48:15.074Z,73.00
2019-05-29T12:49:12.576Z,73.86
2019-05-29T12:50:12.591Z,71.78
2019-05-29T12:51:12.602Z,71.40
2019-05-29T12:52:12.634Z,70.82
2019-05-29T12:53:28.766Z,68.74
2019-05-29T12:54:12.678Z,68.64
2019-05-29T12:55:12.652Z,70.18
2019-05-29T12:56:12.656Z,68.68
2019-05-29T12:57:12.675Z,69.38
2019-05-29T12:58:12.685Z,69.09
2019-05-29T12:59:12.697Z,67.33
2019-05-29T13:00:12.719Z,66.82
2019-05-29T13:01:12.725Z,64.40